createdAt,value
2018-08-04T00:01:37.441Z,95273.16
2018-08-04T00:04:04.128Z,95267.19
2018-08-04T00:06:30.780Z,95260.53
2018-08-04T00:08:57.439Z,95265.95
2018-08-04T00:11:24.100Z,95265.88
2018-08-04T00:13:50.763Z,95256.51
2018-08-04T00:16:17.414Z,95254.33
2018-08-04T00:18:44.075Z,95244.30
2018-08-04T00:21:10.784Z,95246.70
2018-08-04T00:23:37.434Z,95252.94
2018-08-04T00:26:04.084Z,95254.26
2018-08-04T00:28:31.189Z,95250.55
2018-08-04T00:30:57.845Z,95245.10
2018-08-04T00:33:24.505Z,95242.26
2018-08-04T00:35:51.169Z,95246.23
2018-08-04T00:38:17.822Z,95244.23
2018-08-04T00:40:44.480Z,95243.13
2018-08-04T00:43:11.176Z,95239.79
2018-08-04T00:45:37.878Z,95242.12
2018-08-04T00:48:04.589Z,95245.55
2018-08-04T00:50:31.258Z,95250.17
2018-08-04T00:52:57.966Z,95243.84
2018-08-04T00:55:24.609Z,95251.37
2018-08-04T00:57:51.268Z,95245.63
2018-08-04T01:00:17.936Z,95241.61
2018-08-04T01:02:44.574Z,95253.84
2018-08-04T01:05:11.231Z,95250.03
2018-08-04T01:07:37.982Z,95253.61
2018-08-04T01:10:04.687Z,95247.56
2018-08-04T01:12:31.337Z,95243.27
2018-08-04T01:14:57.996Z,95246.23
2018-08-04T01:17:24.717Z,95237.86
2018-08-04T01:19:51.383Z,95236.22
2018-08-04T01:22:18.030Z,95238.34
2018-08-04T01:24:44.731Z,95241.82
2018-08-04T01:27:11.392Z,95232.66
2018-08-04T01:29:38.039Z,95231.48
2018-08-04T01:32:04.708Z,95240.05
2018-08-04T01:34:31.406Z,95235.98
2018-08-04T01:36:58.106Z,95236.24
2018-08-04T01:39:24.760Z,95232.92
2018-08-04T01:41:51.487Z,95233.62
2018-08-04T01:44:18.129Z,95233.68
2018-08-04T01:46:44.773Z,95233.39
2018-08-04T01:49:11.444Z,95235.14
2018-08-04T01:51:38.142Z,95230.30
2018-08-04T01:54:04.789Z,95237.11
2018-08-04T01:56:31.490Z,95234.64
2018-08-04T01:58:58.132Z,95236.24
2018-08-04T02:01:24.793Z,95236.73
2018-08-04T02:03:51.463Z,95234.33
2018-08-04T02:06:18.158Z,95233.77
2018-08-04T02:08:44.803Z,95233.19
2018-08-04T02:11:11.485Z,95233.69
2018-08-04T02:13:38.131Z,95235.77
2018-08-04T02:16:04.803Z,95241.55
2018-08-04T02:18:31.469Z,95241.28
2018-08-04T02:20:58.172Z,95244.71
2018-08-04T02:23:24.858Z,95241.55
2018-08-04T02:25:51.512Z,95236.48
2018-08-04T02:28:18.161Z,95223.36
2018-08-04T02:30:44.822Z,95238.86
2018-08-04T02:33:11.503Z,95238.11
2018-08-04T02:35:38.237Z,95242.74
2018-08-04T02:38:04.887Z,95236.61
2018-08-04T02:40:31.537Z,95245.23
2018-08-04T02:42:58.217Z,95245.98
2018-08-04T02:45:24.930Z,95244.13
2018-08-04T02:47:51.658Z,95255.61
2018-08-04T02:50:18.372Z,95253.69
2018-08-04T02:52:45.029Z,95261.17
2018-08-04T02:55:11.686Z,95262.48
2018-08-04T02:57:38.334Z,95265.27
2018-08-04T03:00:04.987Z,95263.28
2018-08-04T03:02:31.644Z,95264.59
2018-08-04T03:04:58.303Z,95268.00
2018-08-04T03:07:25.006Z,95272.75
2018-08-04T03:09:51.653Z,95271.78
2018-08-04T03:12:18.304Z,95272.23
2018-08-04T03:14:44.968Z,95271.48
2018-08-04T03:17:11.618Z,95270.86
2018-08-04T03:19:38.320Z,95270.29
2018-08-04T03:22:05.070Z,95273.64
2018-08-04T03:24:31.780Z,95277.45
2018-08-04T03:26:58.422Z,95271.61
2018-08-04T03:29:25.209Z,95276.92
2018-08-04T03:31:51.867Z,95276.48
2018-08-04T03:34:18.517Z,95279.77
2018-08-04T03:36:45.187Z,95278.52
2018-08-04T03:39:11.897Z,95286.40
2018-08-04T03:41:38.564Z,95289.40
2018-08-04T03:44:05.206Z,95287.88
2018-08-04T03:46:31.867Z,95282.53
2018-08-04T03:48:58.559Z,95298.96
2018-08-04T03:51:25.239Z,95302.22
2018-08-04T03:53:51.877Z,95298.16
2018-08-04T03:56:18.562Z,95300.25
2018-08-04T03:58:45.216Z,95302.19
2018-08-04T04:01:11.843Z,95305.22
2018-08-04T04:03:38.478Z,95302.55
2018-08-04T04:06:05.159Z,95301.67
2018-08-04T04:08:31.832Z,95306.34
2018-08-04T04:10:58.524Z,95310.30
2018-08-04T04:13:25.155Z,95310.58
2018-08-04T04:15:51.804Z,95312.44
2018-08-04T04:18:18.431Z,95313.89
2018-08-04T04:20:45.130Z,95316.17
2018-08-04T04:23:11.755Z,95314.64
2018-08-04T04:25:38.402Z,95314.83
2018-08-04T04:28:05.074Z,95325.66
2018-08-04T04:30:31.706Z,95329.97
2018-08-04T04:32:58.348Z,95334.21
2018-08-04T04:35:25.004Z,95337.37
2018-08-04T04:37:51.776Z,95334.08
2018-08-04T04:40:18.449Z,95331.95
2018-08-04T04:42:45.053Z,95332.94
2018-08-04T04:45:11.703Z,95339.48
2018-08-04T04:47:38.343Z,95333.86
2018-08-04T04:50:05.032Z,95335.75
2018-08-04T04:52:31.682Z,95341.58
2018-08-04T04:54:58.315Z,95344.42
2018-08-04T04:57:24.992Z,95343.55
2018-08-04T04:59:51.633Z,95348.10
2018-08-04T05:02:18.291Z,95351.78
2018-08-04T05:04:44.935Z,95350.65
2018-08-04T05:07:11.608Z,95347.48
2018-08-04T05:09:38.249Z,95352.75
2018-08-04T05:12:04.882Z,95350.84
2018-08-04T05:14:31.576Z,95351.94
2018-08-04T05:16:58.217Z,95354.11
2018-08-04T05:19:24.986Z,95352.88
2018-08-04T05:21:51.676Z,95359.42
2018-08-04T05:24:18.312Z,95351.87
2018-08-04T05:26:44.947Z,95359.24
2018-08-04T05:29:11.641Z,95355.97
2018-08-04T05:31:38.371Z,95359.75
2018-08-04T05:34:04.998Z,95358.04
2018-08-04T05:36:31.664Z,95348.02
2018-08-04T05:38:58.281Z,95339.47
2018-08-04T05:41:24.918Z,95345.27
2018-08-04T05:43:51.637Z,95346.66
2018-08-04T05:46:18.279Z,95343.37
2018-08-04T05:48:44.910Z,95338.03
2018-08-04T05:51:11.546Z,95339.16
2018-08-04T05:53:38.225Z,95340.44
2018-08-04T05:56:04.915Z,95336.52
2018-08-04T05:58:31.550Z,95332.59
2018-08-04T06:00:58.286Z,95328.84
2018-08-04T06:03:24.966Z,95330.61
2018-08-04T06:05:51.602Z,95336.31
2018-08-04T06:08:18.243Z,95329.70
2018-08-04T06:10:44.892Z,95330.34
2018-08-04T06:13:11.570Z,95329.22
2018-08-04T06:15:38.202Z,95329.44
2018-08-04T06:18:04.871Z,95331.05
2018-08-04T06:20:31.508Z,95328.78
2018-08-04T06:22:58.142Z,95329.22
2018-08-04T06:25:24.787Z,95329.28
2018-08-04T06:27:51.416Z,95325.27
2018-08-04T06:30:18.092Z,95324.02
2018-08-04T06:32:44.728Z,95324.66
2018-08-04T06:35:11.407Z,95323.11
2018-08-04T06:37:38.041Z,95318.92
2018-08-04T06:40:04.695Z,95318.23
2018-08-04T06:42:31.344Z,95319.56
2018-08-04T06:44:58.011Z,95312.84
2018-08-04T06:47:24.698Z,95319.30
2018-08-04T06:49:51.327Z,95317.94
2018-08-04T06:52:17.963Z,95314.71
2018-08-04T06:54:44.613Z,95313.87
2018-08-04T06:57:11.307Z,95317.47
2018-08-04T06:59:37.949Z,95313.44
2018-08-04T07:02:04.590Z,95316.02
2018-08-04T07:04:31.265Z,95310.12
2018-08-04T07:06:57.928Z,95316.28
2018-08-04T07:09:24.610Z,95323.52
2018-08-04T07:11:51.265Z,95316.17
2018-08-04T07:14:17.912Z,95328.95
2018-08-04T07:16:44.593Z,95323.58
2018-08-04T07:19:11.224Z,95321.28
2018-08-04T07:21:37.900Z,95322.19
2018-08-04T07:24:04.547Z,95313.29
2018-08-04T07:26:31.184Z,95312.09
2018-08-04T07:28:58.667Z,95315.76
2018-08-04T07:31:25.224Z,95314.13
2018-08-04T07:33:51.884Z,95313.00
2018-08-04T07:36:18.566Z,95309.89
2018-08-04T07:38:45.205Z,95306.45
2018-08-04T07:41:11.879Z,95309.02
2018-08-04T07:43:38.558Z,95313.09
2018-08-04T07:46:05.209Z,95311.40
2018-08-04T07:48:31.856Z,95310.18
2018-08-04T07:50:58.558Z,95305.97
2018-08-04T07:53:25.171Z,95306.20
2018-08-04T07:55:51.834Z,95302.39
2018-08-04T07:58:18.442Z,95305.79
2018-08-04T08:00:45.082Z,95300.91
2018-08-04T08:03:11.761Z,95302.30
2018-08-04T08:05:38.398Z,95303.09
2018-08-04T08:08:05.091Z,95300.16
2018-08-04T08:10:31.834Z,95302.06
2018-08-04T08:12:58.438Z,95298.96
2018-08-04T08:15:25.107Z,95305.81
2018-08-04T08:17:51.745Z,95299.77
2018-08-04T08:20:18.420Z,95296.48
2018-08-04T08:22:45.062Z,95291.48
2018-08-04T08:25:11.738Z,95293.94
2018-08-04T08:27:38.378Z,95292.95
2018-08-04T08:30:05.065Z,95298.50
2018-08-04T08:32:31.815Z,95290.01
2018-08-04T08:34:58.482Z,95288.70
2018-08-04T08:37:25.118Z,95284.28
2018-08-04T08:39:51.771Z,95297.16
2018-08-04T08:42:18.438Z,95291.20
2018-08-04T08:44:45.109Z,95284.52
2018-08-04T08:47:11.767Z,95281.84
2018-08-04T08:49:38.435Z,95279.87
2018-08-04T08:52:05.069Z,95275.80
2018-08-04T08:54:31.702Z,95275.80
2018-08-04T08:56:58.389Z,95264.73
2018-08-04T08:59:25.024Z,95262.22
2018-08-04T09:01:51.660Z,95259.76
2018-08-04T09:04:18.298Z,95261.91
2018-08-04T09:06:44.933Z,95256.41
2018-08-04T09:09:11.624Z,95258.53
2018-08-04T09:11:38.258Z,95254.17
2018-08-04T09:14:04.992Z,95250.83
2018-08-04T09:16:31.626Z,95248.16
2018-08-04T09:18:58.385Z,95248.42
2018-08-04T09:21:25.036Z,95239.56
2018-08-04T09:23:51.750Z,95245.44
2018-08-04T09:26:18.380Z,95243.17
2018-08-04T09:28:45.033Z,95241.08
2018-08-04T09:31:11.698Z,95241.83
2018-08-04T09:33:38.362Z,95235.98
2018-08-04T09:36:05.002Z,95238.02
2018-08-04T09:38:31.666Z,95234.42
2018-08-04T09:40:58.317Z,95234.28
2018-08-04T09:43:25.022Z,95238.08
2018-08-04T09:45:51.662Z,95239.48
2018-08-04T09:48:18.312Z,95231.95
2018-08-04T09:50:44.960Z,95232.45
2018-08-04T09:53:11.675Z,95233.73
2018-08-04T09:55:38.311Z,95230.82
2018-08-04T09:58:04.953Z,95231.05
2018-08-04T10:00:31.594Z,95227.52
2018-08-04T10:02:58.222Z,95228.67
2018-08-04T10:05:24.897Z,95232.48
2018-08-04T10:07:51.535Z,95234.95
2018-08-04T10:10:18.218Z,95236.98
2018-08-04T10:12:44.855Z,95233.12
2018-08-04T10:15:11.504Z,95236.72
2018-08-04T10:17:38.190Z,95232.91
2018-08-04T10:20:04.868Z,95228.09
2018-08-04T10:22:31.513Z,95231.69
2018-08-04T10:24:58.166Z,95232.22
2018-08-04T10:27:24.802Z,95230.70
2018-08-04T10:29:51.502Z,95224.28
2018-08-04T10:32:18.211Z,95221.06
2018-08-04T10:34:44.778Z,95228.23
2018-08-04T10:37:11.471Z,95227.42
2018-08-04T10:39:38.124Z,95226.20
2018-08-04T10:42:04.756Z,95218.09
2018-08-04T10:44:31.453Z,95228.49
2018-08-04T10:46:58.169Z,95223.93
2018-08-04T10:49:24.810Z,95227.10
2018-08-04T10:51:51.457Z,95222.27
2018-08-04T10:54:18.109Z,95231.59
2018-08-04T10:56:44.786Z,95225.13
2018-08-04T10:59:11.425Z,95222.02
2018-08-04T11:01:40.204Z,95216.00
2018-08-04T11:04:04.708Z,95213.39
2018-08-04T11:06:31.411Z,95213.66
2018-08-04T11:08:58.091Z,95214.98
2018-08-04T11:11:24.717Z,95220.77
2018-08-04T11:13:51.439Z,95212.83
2018-08-04T11:16:18.097Z,95210.48
2018-08-04T11:18:44.790Z,95210.42
2018-08-04T11:21:11.423Z,95208.86
2018-08-04T11:23:38.116Z,95216.00
2018-08-04T11:26:04.761Z,95210.62
2018-08-04T11:28:31.436Z,95216.64
2018-08-04T11:30:58.095Z,95203.08
2018-08-04T11:33:24.746Z,95205.28
2018-08-04T11:35:51.394Z,95208.91
2018-08-04T11:38:18.054Z,95207.37
2018-08-04T11:40:44.686Z,95207.52
2018-08-04T11:43:11.391Z,95208.45
2018-08-04T11:45:38.118Z,95209.28
2018-08-04T11:48:04.690Z,95197.44
2018-08-04T11:50:31.380Z,95195.47
2018-08-04T11:52:58.016Z,95190.42
2018-08-04T11:55:24.653Z,95193.12
2018-08-04T11:57:51.301Z,95193.49
2018-08-04T12:00:17.936Z,95198.95
2018-08-04T12:02:44.562Z,95196.48
2018-08-04T12:05:11.216Z,95192.73
2018-08-04T12:07:39.211Z,95191.37
2018-08-04T12:10:04.487Z,95201.67
2018-08-04T12:12:31.178Z,95195.89
2018-08-04T12:14:57.801Z,95195.95
2018-08-04T12:17:24.460Z,95192.13
2018-08-04T12:19:51.082Z,95186.82
2018-08-04T12:22:17.723Z,95188.73
2018-08-04T12:24:44.361Z,95185.11
2018-08-04T12:27:11.002Z,95183.48
2018-08-04T12:29:37.661Z,95178.03
2018-08-04T12:32:04.294Z,95180.55
2018-08-04T12:34:30.932Z,95182.96
2018-08-04T12:36:57.590Z,95186.56
2018-08-04T12:39:24.255Z,95179.68
2018-08-04T12:41:50.890Z,95185.38
2018-08-04T12:44:17.530Z,95184.41
2018-08-04T12:46:44.163Z,95183.17
2018-08-04T12:49:12.054Z,95178.66
2018-08-04T12:51:37.478Z,95177.39
2018-08-04T12:54:04.084Z,95179.47
2018-08-04T12:56:30.729Z,95175.18
2018-08-04T12:58:57.366Z,95175.23
2018-08-04T13:01:24.002Z,95177.06
2018-08-04T13:03:50.662Z,95181.68
2018-08-04T13:06:17.297Z,95174.92
2018-08-04T13:08:43.938Z,95178.92
2018-08-04T13:11:10.572Z,95178.92
2018-08-04T13:13:37.208Z,95176.56
2018-08-04T13:16:03.861Z,95178.27
2018-08-04T13:18:30.512Z,95176.50
2018-08-04T13:20:57.147Z,95174.30
2018-08-04T13:23:23.802Z,95173.34
2018-08-04T13:25:50.453Z,95170.99
2018-08-04T13:28:17.109Z,95180.22
2018-08-04T13:30:43.747Z,95175.69
2018-08-04T13:33:10.431Z,95173.72
2018-08-04T13:35:37.054Z,95172.87
2018-08-04T13:38:03.688Z,95174.66
2018-08-04T13:40:30.353Z,95180.18
2018-08-04T13:42:57.011Z,95177.45
2018-08-04T13:45:23.627Z,95179.83
2018-08-04T13:47:50.272Z,95179.23
2018-08-04T13:50:16.937Z,95180.31
2018-08-04T13:52:43.600Z,95179.28
2018-08-04T13:55:10.210Z,95182.83
2018-08-04T13:57:36.843Z,95183.53
2018-08-04T14:00:03.521Z,95179.55
2018-08-04T14:02:30.120Z,95179.22
2018-08-04T14:04:56.746Z,95181.55
2018-08-04T14:07:23.390Z,95174.57
2018-08-04T14:09:50.041Z,95183.63
2018-08-04T14:12:16.690Z,95184.41
2018-08-04T14:14:43.324Z,95185.72
2018-08-04T14:17:09.972Z,95186.23
2018-08-04T14:19:36.679Z,95188.70
2018-08-04T14:22:03.262Z,95182.38
2018-08-04T14:24:29.922Z,95180.02
2018-08-04T14:26:56.601Z,95181.17
2018-08-04T14:29:23.284Z,95184.02
2018-08-04T14:31:49.923Z,95185.98
2018-08-04T14:34:16.588Z,95182.98
2018-08-04T14:36:43.221Z,95176.59
2018-08-04T14:39:09.863Z,95176.55
2018-08-04T14:41:36.508Z,95175.91
2018-08-04T14:44:03.235Z,95176.59
2018-08-04T14:46:29.913Z,95174.05
2018-08-04T14:48:56.528Z,95176.13
2018-08-04T14:51:23.171Z,95165.70
2018-08-04T14:53:49.804Z,95169.00
2018-08-04T14:56:16.454Z,95165.70
2018-08-04T14:58:43.096Z,95167.14
2018-08-04T15:01:09.733Z,95176.86
2018-08-04T15:03:36.370Z,95173.34
2018-08-04T15:06:03.007Z,95175.19
2018-08-04T15:08:29.644Z,95172.27
2018-08-04T15:10:56.278Z,95181.06
2018-08-04T15:13:22.947Z,95178.78
2018-08-04T15:15:49.629Z,95172.33
2018-08-04T15:18:16.192Z,95169.29
2018-08-04T15:20:42.827Z,95176.63
2018-08-04T15:23:09.474Z,95169.05
2018-08-04T15:25:36.103Z,95171.32
2018-08-04T15:28:02.753Z,95171.81
2018-08-04T15:30:29.384Z,95170.94
2018-08-04T15:32:56.060Z,95167.02
2018-08-04T15:35:22.672Z,95165.75
2018-08-04T15:37:49.315Z,95172.47
2018-08-04T15:40:15.954Z,95171.45
2018-08-04T15:42:42.590Z,95176.31
2018-08-04T15:45:09.228Z,95175.61
2018-08-04T15:47:35.878Z,95171.81
2018-08-04T15:50:02.525Z,95173.39
2018-08-04T15:52:29.194Z,95174.52
2018-08-04T15:54:55.844Z,95183.52
2018-08-04T15:57:22.481Z,95176.39
2018-08-04T15:59:49.119Z,95180.66
2018-08-04T16:02:15.778Z,95181.27
2018-08-04T16:04:42.436Z,95178.58
2018-08-04T16:07:09.143Z,95181.83
2018-08-04T16:09:35.790Z,95182.42
2018-08-04T16:12:02.422Z,95182.34
2018-08-04T16:14:29.048Z,95187.66
2018-08-04T16:16:55.695Z,95180.67
2018-08-04T16:19:22.370Z,95182.19
2018-08-04T16:21:49.008Z,95179.42
2018-08-04T16:24:15.693Z,95180.62
2018-08-04T16:26:42.295Z,95175.86
2018-08-04T16:29:08.994Z,95179.04
2018-08-04T16:31:35.653Z,95180.47
2018-08-04T16:34:02.291Z,95181.02
2018-08-04T16:36:28.941Z,95176.13
2018-08-04T16:38:55.581Z,95184.56
2018-08-04T16:41:22.224Z,95182.86
2018-08-04T16:43:48.853Z,95182.63
2018-08-04T16:46:15.490Z,95182.97
2018-08-04T16:48:42.169Z,95189.30
2018-08-04T16:51:08.811Z,95188.23
2018-08-04T16:53:35.453Z,95190.36
2018-08-04T16:56:02.100Z,95195.03
2018-08-04T16:58:28.742Z,95196.05
2018-08-04T17:00:55.366Z,95199.51
2018-08-04T17:03:22.004Z,95196.13
2018-08-04T17:05:48.635Z,95197.78
2018-08-04T17:08:15.271Z,95199.22
2018-08-04T17:10:41.964Z,95203.61
2018-08-04T17:13:08.616Z,95206.63
2018-08-04T17:15:35.247Z,95207.66
2018-08-04T17:18:01.923Z,95205.63
2018-08-04T17:20:28.537Z,95205.50
2018-08-04T17:22:55.217Z,95205.06
2018-08-04T17:25:21.855Z,95204.23
2018-08-04T17:27:48.490Z,95207.50
2018-08-04T17:30:15.121Z,95206.87
2018-08-04T17:32:41.818Z,95210.98
2018-08-04T17:35:08.496Z,95214.19
2018-08-04T17:37:35.300Z,95216.69
2018-08-04T17:40:01.820Z,95220.79
2018-08-04T17:42:28.454Z,95224.75
2018-08-04T17:44:55.113Z,95227.20
2018-08-04T17:47:21.796Z,95239.17
2018-08-04T17:49:48.428Z,95237.62
2018-08-04T17:52:15.175Z,95240.19
2018-08-04T17:54:41.803Z,95240.73
2018-08-04T17:57:08.514Z,95243.56
2018-08-04T17:59:35.091Z,95245.13
2018-08-04T18:02:01.729Z,95244.23
2018-08-04T18:04:28.367Z,95248.37
2018-08-04T18:06:54.996Z,95246.09
2018-08-04T18:09:21.703Z,95255.78
2018-08-04T18:11:48.341Z,95251.65
2018-08-04T18:14:14.976Z,95248.66
2018-08-04T18:16:41.616Z,95248.27
2018-08-04T18:19:08.253Z,95256.72
2018-08-04T18:21:34.926Z,95256.63
2018-08-04T18:24:01.609Z,95259.95
2018-08-04T18:26:28.250Z,95261.81
2018-08-04T18:28:54.885Z,95271.72
2018-08-04T18:31:21.544Z,95270.49
2018-08-04T18:33:48.181Z,95274.49
2018-08-04T18:36:14.824Z,95272.05
2018-08-04T18:38:41.881Z,95281.99
2018-08-04T18:41:08.471Z,95284.65
2018-08-04T18:43:35.143Z,95289.24
2018-08-04T18:46:01.780Z,95280.16
2018-08-04T18:48:28.468Z,95280.88
2018-08-04T18:50:55.139Z,95286.85
2018-08-04T18:53:21.773Z,95287.35
2018-08-04T18:55:48.467Z,95283.78
2018-08-04T18:58:15.110Z,95286.07
2018-08-04T19:00:41.809Z,95290.70
2018-08-04T19:03:08.512Z,95289.56
2018-08-04T19:05:35.110Z,95286.84
2018-08-04T19:08:01.794Z,95284.15
2018-08-04T19:10:28.440Z,95284.19
2018-08-04T19:12:55.066Z,95292.88
2018-08-04T19:15:21.710Z,95288.45
2018-08-04T19:17:48.450Z,95284.91
2018-08-04T19:20:15.164Z,95283.13
2018-08-04T19:22:41.812Z,95284.91
2018-08-04T19:25:08.495Z,95290.42
2018-08-04T19:27:35.131Z,95284.45
2018-08-04T19:30:01.772Z,95289.34
2018-08-04T19:32:28.454Z,95281.55
2018-08-04T19:34:55.107Z,95285.42
2018-08-04T19:37:21.752Z,95286.56
2018-08-04T19:39:48.387Z,95281.89
2018-08-04T19:42:15.033Z,95276.39
2018-08-04T19:44:41.665Z,95276.91
2018-08-04T19:47:08.336Z,95275.63
2018-08-04T19:49:34.984Z,95279.38
2018-08-04T19:52:01.612Z,95281.44
2018-08-04T19:54:28.262Z,95285.19
2018-08-04T19:56:54.914Z,95285.03
2018-08-04T19:59:21.596Z,95280.78
2018-08-04T20:01:48.227Z,95283.92
2018-08-04T20:04:14.873Z,95278.98
2018-08-04T20:06:42.952Z,95279.08
2018-08-04T20:09:08.204Z,95274.80
2018-08-04T20:11:34.872Z,95274.55
2018-08-04T20:14:01.478Z,95275.66
2018-08-04T20:16:28.107Z,95276.78
2018-08-04T20:18:54.767Z,95274.00
2018-08-04T20:21:21.406Z,95276.36
2018-08-04T20:23:48.048Z,95273.11
2018-08-04T20:26:14.772Z,95273.86
2018-08-04T20:28:41.451Z,95271.72
2018-08-04T20:31:08.086Z,95269.56
2018-08-04T20:33:34.725Z,95270.06
2018-08-04T20:36:01.396Z,95268.24
2018-08-04T20:38:28.031Z,95272.19
2018-08-04T20:40:54.682Z,95273.95
2018-08-04T20:43:21.403Z,95277.50
2018-08-04T20:45:48.039Z,95284.20
2018-08-04T20:48:14.680Z,95280.92
2018-08-04T20:50:41.321Z,95277.75
2018-08-04T20:53:08.003Z,95280.90
2018-08-04T20:55:35.894Z,95280.14
2018-08-04T20:58:01.291Z,95279.01
2018-08-04T21:00:27.917Z,95272.56
2018-08-04T21:02:54.552Z,95276.86
2018-08-04T21:05:21.200Z,95277.83
2018-08-04T21:07:47.836Z,95280.78
2018-08-04T21:10:14.529Z,95279.39
2018-08-04T21:12:41.159Z,95284.20
2018-08-04T21:15:07.908Z,95278.75
2018-08-04T21:17:34.518Z,95274.57
2018-08-04T21:20:01.149Z,95273.77
2018-08-04T21:22:27.795Z,95279.20
2018-08-04T21:24:54.532Z,95281.48
2018-08-04T21:27:21.159Z,95274.90
2018-08-04T21:29:47.811Z,95278.62
2018-08-04T21:32:14.461Z,95270.65
2018-08-04T21:34:41.096Z,95283.00
2018-08-04T21:37:07.857Z,95283.02
2018-08-04T21:39:34.548Z,95285.59
2018-08-04T21:42:01.184Z,95286.42
2018-08-04T21:44:27.898Z,95283.75
2018-08-04T21:46:54.527Z,95287.62
2018-08-04T21:49:21.213Z,95288.13
2018-08-04T21:51:47.815Z,95286.84
2018-08-04T21:54:14.452Z,95296.31
2018-08-04T21:56:41.130Z,95288.38
2018-08-04T21:59:07.780Z,95290.79
2018-08-04T22:01:34.532Z,95289.52
2018-08-04T22:04:01.105Z,95293.27
2018-08-04T22:06:27.754Z,95292.42
2018-08-04T22:08:54.404Z,95292.63
2018-08-04T22:11:21.042Z,95294.08
2018-08-04T22:13:47.681Z,95286.78
2018-08-04T22:16:14.315Z,95297.12
2018-08-04T22:18:40.996Z,95299.03
2018-08-04T22:21:07.688Z,95292.05
2018-08-04T22:23:34.602Z,95293.45
2018-08-04T22:26:01.253Z,95301.93
2018-08-04T22:28:27.889Z,95298.46
2018-08-04T22:30:54.579Z,95301.51
2018-08-04T22:33:21.253Z,95301.55
2018-08-04T22:35:47.869Z,95304.98
2018-08-04T22:38:14.509Z,95304.67
2018-08-04T22:40:41.168Z,95295.39
2018-08-04T22:43:07.828Z,95298.96
2018-08-04T22:45:34.471Z,95295.09
2018-08-04T22:48:01.191Z,95295.94
2018-08-04T22:50:27.885Z,95295.56
2018-08-04T22:52:54.523Z,95293.31
2018-08-04T22:55:21.165Z,95291.17
2018-08-04T22:57:47.798Z,95288.19
2018-08-04T23:00:14.435Z,95285.64
2018-08-04T23:02:41.072Z,95283.99
2018-08-04T23:05:07.709Z,95288.17
2018-08-04T23:07:34.343Z,95282.48
2018-08-04T23:10:00.993Z,95277.42
2018-08-04T23:12:27.628Z,95283.00
2018-08-04T23:14:54.265Z,95280.33
2018-08-04T23:17:20.951Z,95274.80
2018-08-04T23:19:47.591Z,95275.66
2018-08-04T23:22:14.272Z,95273.50
2018-08-04T23:24:40.913Z,95276.72
2018-08-04T23:27:07.603Z,95272.61
2018-08-04T23:29:34.226Z,95272.48
2018-08-04T23:32:00.854Z,95271.85
2018-08-04T23:34:27.495Z,95267.60
2018-08-04T23:36:54.129Z,95276.29
2018-08-04T23:39:20.808Z,95272.33
2018-08-04T23:41:47.445Z,95273.98
2018-08-04T23:44:14.122Z,95268.48
2018-08-04T23:46:40.769Z,95261.26
2018-08-04T23:49:07.442Z,95262.58
2018-08-04T23:51:34.077Z,95265.91
2018-08-04T23:54:00.779Z,95261.56
2018-08-04T23:56:27.454Z,95263.97
2018-08-04T23:58:54.117Z,95265.24
